createdAt,value
2022-12-07T00:01:11.763Z,23.61
2022-12-07T00:03:40.718Z,23.39
2022-12-07T00:06:09.427Z,24.03
2022-12-07T00:08:36.258Z,24.32
2022-12-07T00:11:09.099Z,24.04
2022-12-07T00:13:36.635Z,24.53
2022-12-07T00:16:09.145Z,24.97
2022-12-07T00:18:35.951Z,25.52
2022-12-07T00:21:08.463Z,25.19
2022-12-07T00:23:35.072Z,25.35
2022-12-07T00:26:23.042Z,26.10
2022-12-07T00:28:55.978Z,26.12
2022-12-07T00:31:25.508Z,26.91
2022-12-07T00:33:52.557Z,26.83
2022-12-07T00:36:26.332Z,27.67
2022-12-07T00:38:58.543Z,27.92
2022-12-07T00:41:28.226Z,27.44
2022-12-07T00:43:55.411Z,27.01
2022-12-07T00:46:22.983Z,27.52
2022-12-07T00:48:50.838Z,28.14
2022-12-07T00:51:19.870Z,27.78
2022-12-07T00:53:47.343Z,27.45
2022-12-07T00:56:17.689Z,27.39
2022-12-07T00:58:45.140Z,27.12
2022-12-07T01:01:12.526Z,27.48
2022-12-07T01:03:39.453Z,27.35
2022-12-07T01:06:06.398Z,26.41
2022-12-07T01:08:33.197Z,26.86
2022-12-07T01:11:01.691Z,26.93
2022-12-07T01:13:28.766Z,26.73
2022-12-07T01:15:59.014Z,25.84
2022-12-07T01:18:25.569Z,26.39
2022-12-07T01:21:03.698Z,26.57
2022-12-07T01:23:31.424Z,26.65
2022-12-07T01:25:59.410Z,25.86
2022-12-07T01:28:26.630Z,26.23
2022-12-07T01:30:58.697Z,25.53
2022-12-07T01:33:25.239Z,26.35
2022-12-07T01:35:51.749Z,27.01
2022-12-07T01:38:18.226Z,26.13
2022-12-07T01:40:45.282Z,26.87
2022-12-07T01:43:24.785Z,26.49
2022-12-07T01:45:51.393Z,25.98
2022-12-07T01:48:25.279Z,26.28
2022-12-07T01:50:56.660Z,25.43
2022-12-07T01:53:29.899Z,25.82
2022-12-07T01:55:58.639Z,25.99
2022-12-07T01:58:26.113Z,26.29
2022-12-07T02:00:52.594Z,26.28
2022-12-07T02:03:49.473Z,25.60
2022-12-07T02:06:21.718Z,24.97
2022-12-07T02:08:48.252Z,25.49
2022-12-07T02:11:16.365Z,25.45
2022-12-07T02:13:46.220Z,25.48
2022-12-07T02:16:24.806Z,25.71
2022-12-07T02:19:00.463Z,25.66
2022-12-07T02:21:45.479Z,25.26
2022-12-07T02:24:14.867Z,24.90
2022-12-07T02:27:11.177Z,24.12
2022-12-07T02:29:43.553Z,23.79
2022-12-07T02:32:24.450Z,23.83
2022-12-07T02:35:18.581Z,23.25
2022-12-07T02:38:16.454Z,23.47
2022-12-07T02:40:52.879Z,23.25
2022-12-07T02:43:36.946Z,22.96
2022-12-07T02:46:10.172Z,23.47
2022-12-07T02:48:42.192Z,23.35
2022-12-07T02:51:08.645Z,22.91
2022-12-07T02:53:41.029Z,23.10
2022-12-07T02:56:27.845Z,23.28
2022-12-07T02:59:00.401Z,23.28
2022-12-07T03:01:57.035Z,22.64
2022-12-07T03:04:50.966Z,22.21
2022-12-07T03:07:31.993Z,23.17
2022-12-07T03:10:25.655Z,22.31
2022-12-07T03:13:10.888Z,22.02
2022-12-07T03:16:03.815Z,21.96
2022-12-07T03:18:35.172Z,22.34
2022-12-07T03:21:12.213Z,21.96
2022-12-07T03:23:44.872Z,22.11
2022-12-07T03:26:15.812Z,21.78
2022-12-07T03:28:50.950Z,21.04
2022-12-07T03:31:27.533Z,21.16
2022-12-07T03:34:22.380Z,21.68
2022-12-07T03:36:54.518Z,21.42
2022-12-07T03:39:48.809Z,20.94
2022-12-07T03:42:15.334Z,20.75
2022-12-07T03:44:43.533Z,20.85
2022-12-07T03:47:31.873Z,20.80
2022-12-07T03:50:22.660Z,21.11
2022-12-07T03:53:15.144Z,20.62
2022-12-07T03:55:46.917Z,21.76
2022-12-07T03:58:18.690Z,20.76
2022-12-07T04:00:46.134Z,21.11
2022-12-07T04:03:12.825Z,21.06
2022-12-07T04:05:40.533Z,21.34
2022-12-07T04:08:07.542Z,21.13
2022-12-07T04:10:34.393Z,22.07
2022-12-07T04:13:20.864Z,21.38
2022-12-07T04:16:07.460Z,21.08
2022-12-07T04:18:33.988Z,21.04
2022-12-07T04:21:00.433Z,20.87
2022-12-07T04:23:26.902Z,21.25
2022-12-07T04:25:53.383Z,20.78
2022-12-07T04:28:19.855Z,20.64
2022-12-07T04:30:46.475Z,21.21
2022-12-07T04:33:12.969Z,20.69
2022-12-07T04:35:39.425Z,21.05
2022-12-07T04:38:05.901Z,21.83
2022-12-07T04:40:32.437Z,21.94
2022-12-07T04:42:58.901Z,20.82
2022-12-07T04:45:25.364Z,20.35
2022-12-07T04:47:51.839Z,20.59
2022-12-07T04:50:18.457Z,21.53
2022-12-07T04:52:44.912Z,21.19
2022-12-07T04:55:11.444Z,20.99
2022-12-07T04:57:37.920Z,20.78
2022-12-07T05:00:05.188Z,20.86
2022-12-07T05:02:32.081Z,21.08
2022-12-07T05:04:58.660Z,21.42
2022-12-07T05:07:25.214Z,20.97
2022-12-07T05:09:51.726Z,21.61
2022-12-07T05:12:18.175Z,22.03
2022-12-07T05:14:44.657Z,22.79
2022-12-07T05:17:11.128Z,21.99
2022-12-07T05:19:37.613Z,21.71
2022-12-07T05:22:04.119Z,21.56
2022-12-07T05:24:30.589Z,22.04
2022-12-07T05:26:57.057Z,21.91
2022-12-07T05:29:23.531Z,22.58
2022-12-07T05:31:50.331Z,22.54
2022-12-07T05:34:16.857Z,22.50
2022-12-07T05:36:43.328Z,22.04
2022-12-07T05:39:09.821Z,22.39
2022-12-07T05:41:36.300Z,22.05
2022-12-07T05:44:03.365Z,22.15
2022-12-07T05:46:29.888Z,22.85
2022-12-07T05:48:56.347Z,23.29
2022-12-07T05:51:23.172Z,23.35
2022-12-07T05:53:49.736Z,23.09
2022-12-07T05:56:16.746Z,22.88
2022-12-07T05:58:43.260Z,22.57
2022-12-07T06:01:09.816Z,22.43
2022-12-07T06:03:36.291Z,22.85
2022-12-07T06:06:02.835Z,23.22
2022-12-07T06:08:29.406Z,22.98
2022-12-07T06:10:55.906Z,23.98
2022-12-07T06:13:22.387Z,22.96
2022-12-07T06:15:48.840Z,24.39
2022-12-07T06:18:15.379Z,24.42
2022-12-07T06:20:41.850Z,24.07
2022-12-07T06:23:08.298Z,23.52
2022-12-07T06:25:34.762Z,24.56
2022-12-07T06:28:01.230Z,23.86
2022-12-07T06:30:27.698Z,24.15
2022-12-07T06:32:54.241Z,24.23
2022-12-07T06:35:20.732Z,24.60
2022-12-07T06:37:47.206Z,24.41
2022-12-07T06:40:13.788Z,24.36
2022-12-07T06:42:40.292Z,24.33
2022-12-07T06:45:07.134Z,24.33
2022-12-07T06:47:42.716Z,23.59
2022-12-07T06:50:13.718Z,24.37
2022-12-07T06:52:40.203Z,24.29
2022-12-07T06:55:07.119Z,24.66
2022-12-07T06:57:33.603Z,23.94
2022-12-07T07:00:00.648Z,24.41
2022-12-07T07:02:27.537Z,23.68
2022-12-07T07:04:54.029Z,24.17
2022-12-07T07:07:20.511Z,24.46
2022-12-07T07:09:46.985Z,23.33
2022-12-07T07:12:13.463Z,23.66
2022-12-07T07:14:40.081Z,23.79
2022-12-07T07:17:06.563Z,23.47
2022-12-07T07:19:33.177Z,23.89
2022-12-07T07:21:59.749Z,23.94
2022-12-07T07:24:26.289Z,24.15
2022-12-07T07:26:52.775Z,24.50
2022-12-07T07:29:19.282Z,24.38
2022-12-07T07:31:45.844Z,24.08
2022-12-07T07:34:12.393Z,24.24
2022-12-07T07:36:38.988Z,24.86
2022-12-07T07:39:05.546Z,23.78
2022-12-07T07:41:32.858Z,23.70
2022-12-07T07:43:59.342Z,23.56
2022-12-07T07:46:25.937Z,24.21
2022-12-07T07:48:52.442Z,24.19
2022-12-07T07:51:18.929Z,24.20
2022-12-07T07:53:45.412Z,25.62
2022-12-07T07:56:11.892Z,25.52
2022-12-07T07:58:38.401Z,26.07
2022-12-07T08:01:08.823Z,25.16
2022-12-07T08:03:36.310Z,25.32
2022-12-07T08:06:04.515Z,25.89
2022-12-07T08:08:31.161Z,23.79
2022-12-07T08:10:57.688Z,24.11
2022-12-07T08:13:30.611Z,24.81
2022-12-07T08:15:57.677Z,24.47
2022-12-07T08:18:24.252Z,24.27
2022-12-07T08:20:50.753Z,24.79
2022-12-07T08:23:17.247Z,24.30
2022-12-07T08:25:43.761Z,23.34
2022-12-07T08:28:10.349Z,20.39
2022-12-07T08:30:36.825Z,17.96
2022-12-07T08:33:03.410Z,16.98
2022-12-07T08:35:29.912Z,15.13
2022-12-07T08:37:56.424Z,14.82
2022-12-07T08:40:22.904Z,14.56
2022-12-07T08:42:50.334Z,14.89
2022-12-07T08:45:23.366Z,14.62
2022-12-07T08:48:07.002Z,14.93
2022-12-07T08:50:36.461Z,14.79
2022-12-07T08:53:04.639Z,15.07
2022-12-07T08:55:32.717Z,15.67
2022-12-07T08:58:01.270Z,15.44
2022-12-07T09:00:28.130Z,16.46
2022-12-07T09:02:55.227Z,16.45
2022-12-07T09:05:22.043Z,15.72
2022-12-07T09:07:55.772Z,15.32
2022-12-07T09:10:22.353Z,16.00
2022-12-07T09:12:48.882Z,14.42
2022-12-07T09:15:15.682Z,13.67
2022-12-07T09:17:42.277Z,13.08
2022-12-07T09:20:09.295Z,12.21
2022-12-07T09:22:35.784Z,11.91
2022-12-07T09:25:03.671Z,11.63
2022-12-07T09:27:30.585Z,11.08
2022-12-07T09:29:57.093Z,11.01
2022-12-07T09:32:24.004Z,11.26
2022-12-07T09:34:50.584Z,10.97
2022-12-07T09:37:17.195Z,11.41
2022-12-07T09:39:49.856Z,11.49
2022-12-07T09:42:36.501Z,11.46
2022-12-07T09:45:27.798Z,12.20
2022-12-07T09:47:54.564Z,12.35
2022-12-07T09:50:27.714Z,12.24
2022-12-07T09:53:09.314Z,12.92
2022-12-07T09:55:55.365Z,12.62
2022-12-07T09:58:25.933Z,12.57
2022-12-07T10:00:59.513Z,13.00
2022-12-07T10:03:28.605Z,12.37
2022-12-07T10:05:56.401Z,12.09
2022-12-07T10:08:23.062Z,11.17
2022-12-07T10:10:56.268Z,12.06
2022-12-07T10:13:38.879Z,12.52
2022-12-07T10:16:07.521Z,11.98
2022-12-07T10:18:40.460Z,11.47
2022-12-07T10:21:09.760Z,11.76
2022-12-07T10:23:37.853Z,12.72
2022-12-07T10:26:30.367Z,12.25
2022-12-07T10:29:01.358Z,11.67
2022-12-07T10:31:27.887Z,11.66
2022-12-07T10:33:58.995Z,11.98
2022-12-07T10:36:39.551Z,13.25
2022-12-07T10:39:16.020Z,12.84
2022-12-07T10:41:54.966Z,12.20
2022-12-07T10:44:29.635Z,12.61
2022-12-07T10:47:21.114Z,11.72
2022-12-07T10:50:02.388Z,12.52
2022-12-07T10:52:46.262Z,12.59
2022-12-07T10:55:26.788Z,12.66
2022-12-07T10:57:53.204Z,12.40
2022-12-07T11:00:25.464Z,12.12
2022-12-07T11:03:27.627Z,11.83
2022-12-07T11:06:20.973Z,11.90
2022-12-07T11:09:18.314Z,12.56
2022-12-07T11:12:14.422Z,12.13
2022-12-07T11:15:13.744Z,11.94
2022-12-07T11:18:10.193Z,13.01
2022-12-07T11:20:46.353Z,13.09
2022-12-07T11:23:45.362Z,11.93
2022-12-07T11:26:48.108Z,12.20
2022-12-07T11:29:54.520Z,13.47
2022-12-07T11:32:44.084Z,13.91
2022-12-07T11:35:48.351Z,13.17
2022-12-07T11:38:28.205Z,12.98
2022-12-07T11:41:06.384Z,13.41
2022-12-07T11:43:36.690Z,12.89
2022-12-07T11:46:17.025Z,13.21
2022-12-07T11:49:03.123Z,13.73
2022-12-07T11:51:36.523Z,12.99
2022-12-07T11:54:17.391Z,13.05
2022-12-07T11:56:48.219Z,12.36
2022-12-07T11:59:37.401Z,12.97
2022-12-07T12:02:20.155Z,12.90
2022-12-07T12:05:19.717Z,13.29
2022-12-07T12:11:14.074Z,13.38
2022-12-07T12:17:35.899Z,14.14
2022-12-07T12:20:27.432Z,13.68
2022-12-07T12:22:57.017Z,14.00
2022-12-07T12:25:32.436Z,14.82
2022-12-07T12:28:00.381Z,14.14
2022-12-07T12:30:41.343Z,13.93
2022-12-07T12:33:23.315Z,14.45
2022-12-07T12:36:15.769Z,14.52
2022-12-07T12:39:07.141Z,15.66
2022-12-07T12:41:36.315Z,14.55
2022-12-07T12:44:23.720Z,15.56
2022-12-07T12:47:00.436Z,15.58
2022-12-07T12:49:26.848Z,16.30
2022-12-07T12:52:16.198Z,15.44
2022-12-07T12:55:12.352Z,16.93
2022-12-07T12:57:39.194Z,16.16
2022-12-07T13:00:23.661Z,15.58
2022-12-07T13:02:54.339Z,15.23
2022-12-07T13:05:24.324Z,15.42
2022-12-07T13:07:59.252Z,15.66
2022-12-07T13:10:28.829Z,15.30
2022-12-07T13:13:01.452Z,15.28
2022-12-07T13:15:52.350Z,15.75
2022-12-07T13:18:28.071Z,15.71
2022-12-07T13:20:57.446Z,15.55
2022-12-07T13:23:28.834Z,15.79
2022-12-07T13:26:17.357Z,17.27
2022-12-07T13:28:53.287Z,15.27
2022-12-07T13:31:28.289Z,15.85
2022-12-07T13:33:54.769Z,15.06
2022-12-07T13:36:25.307Z,15.60
2022-12-07T13:38:58.053Z,16.03
2022-12-07T13:41:29.828Z,15.98
2022-12-07T13:44:10.475Z,16.15
2022-12-07T13:46:57.130Z,16.15
2022-12-07T13:49:28.438Z,15.94
2022-12-07T13:52:07.599Z,15.68
2022-12-07T13:54:34.070Z,15.50
2022-12-07T13:57:00.565Z,16.05
2022-12-07T13:59:27.545Z,16.42
2022-12-07T14:01:56.574Z,15.87
2022-12-07T14:04:35.688Z,15.60
2022-12-07T14:07:20.977Z,15.68
2022-12-07T14:10:01.141Z,15.93
2022-12-07T14:12:30.179Z,16.59
2022-12-07T14:14:58.893Z,16.79
2022-12-07T14:17:27.871Z,16.62
2022-12-07T14:19:58.645Z,16.72
2022-12-07T14:22:31.578Z,16.69
2022-12-07T14:25:26.599Z,16.83
2022-12-07T14:28:01.553Z,17.22
2022-12-07T14:30:34.600Z,16.75
2022-12-07T14:33:04.879Z,17.26
2022-12-07T14:35:33.151Z,17.88
2022-12-07T14:37:59.775Z,17.21
2022-12-07T14:40:30.581Z,17.16
2022-12-07T14:43:02.988Z,16.16
2022-12-07T14:45:29.833Z,15.72
2022-12-07T14:53:44.528Z,18.33
2022-12-07T14:56:11.068Z,17.37
2022-12-07T14:58:37.565Z,17.34
2022-12-07T15:01:04.315Z,17.16
2022-12-07T15:03:30.920Z,16.62
2022-12-07T15:05:57.787Z,16.37
2022-12-07T15:08:24.311Z,17.09
2022-12-07T15:10:50.834Z,16.81
2022-12-07T15:13:17.344Z,16.49
2022-12-07T15:15:43.997Z,16.60
2022-12-07T15:18:10.574Z,16.92
2022-12-07T15:20:37.123Z,17.01
2022-12-07T15:23:03.685Z,17.72
2022-12-07T15:25:30.243Z,17.86
2022-12-07T15:27:56.753Z,17.00
2022-12-07T15:30:23.351Z,16.80
2022-12-07T15:32:54.656Z,17.65
2022-12-07T15:35:22.143Z,16.83
2022-12-07T15:37:49.014Z,16.64
2022-12-07T15:40:16.339Z,16.16
2022-12-07T15:42:43.453Z,16.79
2022-12-07T15:45:11.062Z,16.84
2022-12-07T15:50:27.460Z,16.77
2022-12-07T15:52:54.268Z,16.12
2022-12-07T15:55:21.315Z,15.90
2022-12-07T15:57:48.140Z,16.21
2022-12-07T16:00:15.301Z,16.81
2022-12-07T16:02:41.917Z,16.35
2022-12-07T16:05:08.617Z,16.89
2022-12-07T16:07:35.177Z,16.89
2022-12-07T16:10:01.791Z,18.60
2022-12-07T16:12:28.305Z,16.90
2022-12-07T16:14:54.928Z,16.76
2022-12-07T16:17:21.509Z,15.61
2022-12-07T16:19:47.997Z,15.23
2022-12-07T16:22:14.492Z,15.81
2022-12-07T16:24:41.032Z,15.35
2022-12-07T16:27:07.534Z,14.49
2022-12-07T16:29:34.071Z,14.47
2022-12-07T16:32:00.552Z,14.37
2022-12-07T16:34:27.038Z,14.86
2022-12-07T16:37:08.749Z,14.03
2022-12-07T16:39:35.300Z,13.93
2022-12-07T16:42:02.489Z,14.08
2022-12-07T16:44:28.978Z,13.71
2022-12-07T16:46:55.654Z,13.90
2022-12-07T16:49:22.370Z,13.83
2022-12-07T16:52:08.676Z,13.69
2022-12-07T16:54:38.314Z,13.55
2022-12-07T16:57:05.092Z,13.95
2022-12-07T16:59:31.637Z,14.37
2022-12-07T17:01:58.124Z,15.05
2022-12-07T17:04:24.659Z,14.19
2022-12-07T17:06:51.212Z,11.73
2022-12-07T17:09:21.130Z,11.17
2022-12-07T17:11:48.939Z,10.32
2022-12-07T17:14:15.629Z,9.88
2022-12-07T17:16:42.209Z,9.94
2022-12-07T17:19:12.394Z,10.35
2022-12-07T17:21:39.716Z,10.69
2022-12-07T17:24:09.813Z,11.06
2022-12-07T17:26:36.431Z,11.07
2022-12-07T17:29:05.573Z,10.61
2022-12-07T17:31:33.003Z,10.31
2022-12-07T17:33:59.489Z,10.86
2022-12-07T17:36:30.878Z,10.53
2022-12-07T17:38:58.026Z,10.92
2022-12-07T17:41:27.582Z,11.05
2022-12-07T17:43:54.057Z,11.35
2022-12-07T17:46:20.582Z,10.58
2022-12-07T17:48:47.131Z,10.21
2022-12-07T17:51:13.736Z,10.98
2022-12-07T17:53:40.329Z,11.39
2022-12-07T17:58:53.753Z,11.43
2022-12-07T18:01:23.793Z,11.61
2022-12-07T18:03:51.115Z,12.00
2022-12-07T18:06:17.717Z,11.95
2022-12-07T18:08:44.458Z,12.61
2022-12-07T18:11:11.615Z,12.19
2022-12-07T18:13:38.308Z,12.24
2022-12-07T18:16:08.639Z,12.28
2022-12-07T18:18:36.649Z,12.70
2022-12-07T18:21:05.598Z,13.19
2022-12-07T18:23:32.112Z,13.29
2022-12-07T18:25:58.653Z,13.21
2022-12-07T18:28:25.352Z,14.70
2022-12-07T18:33:42.465Z,14.45
2022-12-07T18:36:09.606Z,15.33
2022-12-07T18:38:36.884Z,15.00
2022-12-07T18:41:04.086Z,15.61
2022-12-07T18:43:30.868Z,15.77
2022-12-07T18:45:57.414Z,16.23
2022-12-07T18:48:24.225Z,16.26
2022-12-07T18:51:02.182Z,16.76
2022-12-07T18:53:29.098Z,17.65
2022-12-07T18:56:15.102Z,16.46
2022-12-07T18:58:42.909Z,16.04
2022-12-07T19:01:09.482Z,16.27
2022-12-07T19:03:36.098Z,16.12
2022-12-07T19:06:06.714Z,17.31
2022-12-07T19:08:33.495Z,17.75
2022-12-07T19:11:00.048Z,17.89
2022-12-07T19:13:26.558Z,18.64
2022-12-07T19:15:53.149Z,18.05
2022-12-07T19:18:19.646Z,18.16
2022-12-07T19:20:46.106Z,18.44
2022-12-07T19:23:12.578Z,18.83
2022-12-07T19:25:40.162Z,19.65
2022-12-07T19:28:06.710Z,18.55
2022-12-07T19:30:33.233Z,18.59
2022-12-07T19:32:59.803Z,19.02
2022-12-07T19:35:26.328Z,18.66
2022-12-07T19:37:52.848Z,18.56
2022-12-07T19:40:19.334Z,19.17
2022-12-07T19:42:45.884Z,19.77
2022-12-07T19:45:12.475Z,19.35
2022-12-07T19:47:39.024Z,19.59
2022-12-07T19:50:07.384Z,19.25
2022-12-07T19:52:36.760Z,18.66
2022-12-07T19:55:04.844Z,19.28
2022-12-07T19:57:31.744Z,19.27
2022-12-07T19:59:58.330Z,19.71
2022-12-07T20:02:24.930Z,20.21
2022-12-07T20:04:51.475Z,20.08
2022-12-07T20:07:17.998Z,19.55
2022-12-07T20:09:44.499Z,18.11
2022-12-07T20:12:11.539Z,17.31
2022-12-07T20:14:38.348Z,17.42
2022-12-07T20:17:06.001Z,17.99
2022-12-07T20:19:35.017Z,17.70
2022-12-07T20:22:01.951Z,17.76
2022-12-07T20:24:28.522Z,17.99
2022-12-07T20:26:55.392Z,17.56
2022-12-07T20:29:24.472Z,16.06
2022-12-07T20:31:52.457Z,15.47
2022-12-07T20:34:19.060Z,16.78
2022-12-07T20:36:46.066Z,17.03
2022-12-07T20:39:12.799Z,15.99
2022-12-07T20:41:39.992Z,20.25
2022-12-07T20:44:06.684Z,21.92
2022-12-07T20:46:33.245Z,19.24
2022-12-07T20:49:01.077Z,20.17
2022-12-07T20:51:29.159Z,16.53
2022-12-07T20:53:56.643Z,15.66
2022-12-07T20:56:28.743Z,16.58
2022-12-07T20:59:02.556Z,17.75
2022-12-07T21:01:30.351Z,16.56
2022-12-07T21:03:58.926Z,14.03
2022-12-07T21:06:26.980Z,14.51
2022-12-07T21:08:59.415Z,15.94
2022-12-07T21:11:28.662Z,15.90
2022-12-07T21:13:55.427Z,16.25
2022-12-07T21:16:27.973Z,16.27
2022-12-07T21:18:56.856Z,16.04
2022-12-07T21:21:24.208Z,18.27
2022-12-07T21:23:58.101Z,26.50
2022-12-07T21:26:27.885Z,19.21
2022-12-07T21:28:55.800Z,15.88
2022-12-07T21:31:22.892Z,15.20
2022-12-07T21:33:49.481Z,15.59
2022-12-07T21:36:20.486Z,16.13
2022-12-07T21:38:48.064Z,16.09
2022-12-07T21:41:20.571Z,16.17
2022-12-07T21:43:48.260Z,15.35
2022-12-07T21:46:16.343Z,15.25
2022-12-07T21:48:43.060Z,15.01
2022-12-07T21:51:14.033Z,15.44
2022-12-07T21:53:43.415Z,15.31
2022-12-07T21:56:34.760Z,15.14
2022-12-07T21:59:04.533Z,15.77
2022-12-07T22:01:33.578Z,14.87
2022-12-07T22:04:00.215Z,15.25
2022-12-07T22:06:27.840Z,15.64
2022-12-07T22:08:55.776Z,16.10
2022-12-07T22:11:22.559Z,15.58
2022-12-07T22:13:49.247Z,15.88
2022-12-07T22:16:15.934Z,18.56
2022-12-07T22:18:42.519Z,19.55
2022-12-07T22:21:08.997Z,14.94
2022-12-07T22:23:35.628Z,14.15
2022-12-07T22:26:10.396Z,14.39
2022-12-07T22:28:37.861Z,13.88
2022-12-07T22:31:06.181Z,14.50
2022-12-07T22:33:33.673Z,14.00
2022-12-07T22:36:00.393Z,14.20
2022-12-07T22:38:27.606Z,14.33
2022-12-07T22:40:55.499Z,13.79
2022-12-07T22:43:24.571Z,13.48
2022-12-07T22:45:58.827Z,14.22
2022-12-07T22:48:26.870Z,13.71
2022-12-07T22:50:54.789Z,14.43
2022-12-07T22:53:23.534Z,14.05
2022-12-07T22:55:51.126Z,14.12
2022-12-07T22:58:20.260Z,13.94
2022-12-07T23:00:46.880Z,14.51
2022-12-07T23:03:14.341Z,14.61
2022-12-07T23:05:46.202Z,14.62
2022-12-07T23:08:12.859Z,14.69
2022-12-07T23:10:47.347Z,14.66
2022-12-07T23:13:16.642Z,14.67
2022-12-07T23:15:43.297Z,14.72
2022-12-07T23:18:10.212Z,14.65
2022-12-07T23:20:37.124Z,14.48
2022-12-07T23:23:04.301Z,14.87
2022-12-07T23:25:32.772Z,14.45
2022-12-07T23:27:59.881Z,14.92
2022-12-07T23:30:26.784Z,15.61
2022-12-07T23:32:53.312Z,15.17
2022-12-07T23:35:19.808Z,15.28
2022-12-07T23:37:46.283Z,15.14
2022-12-07T23:40:12.824Z,15.12
2022-12-07T23:42:39.409Z,14.90
2022-12-07T23:45:06.472Z,14.50
2022-12-07T23:47:33.057Z,15.20
2022-12-07T23:49:59.564Z,15.23
2022-12-07T23:52:26.081Z,15.61
2022-12-07T23:54:52.549Z,15.48
2022-12-07T23:57:19.040Z,15.81
2022-12-07T23:59:45.520Z,16.16
